Time;durP1;ratioP1;P1;durP2;ratioP2;P2;SDS_P1;SDS_P2;PMS_P1;PMS_P2;Temp;Humidity;BMP_temperature;BMP_pressure;BME280_temperature;BME280_humidity;BME280_pressure;Samples;Min_cycle;Max_cycle;Signal;HPM_P1;HPM_P2
2022/07/05 00:01:08;;;;;;;2.50;1.40;;;24.40;40.10;;;;;;5021259;28;20438;-90
2022/07/05 00:03:35;;;;;;;1.80;1.20;;;24.30;41.10;;;;;;5003403;28;20450;-91
2022/07/05 00:06:02;;;;;;;1.30;1.20;;;24.30;41.90;;;;;;5022849;28;20475;-89
2022/07/05 00:08:29;;;;;;;1.43;1.33;;;24.30;42.40;;;;;;5021660;28;21086;-91
2022/07/05 00:10:56;;;;;;;2.17;1.40;;;24.30;42.70;;;;;;5004226;28;20605;-90
2022/07/05 00:13:25;;;;;;;1.20;1.10;;;24.30;42.20;;;;;;5018417;28;20450;-90
2022/07/05 00:15:52;;;;;;;3.00;1.37;;;24.30;41.50;;;;;;5010018;28;20469;-90
2022/07/05 00:18:19;;;;;;;1.83;1.30;;;24.20;40.60;;;;;;5003655;28;20499;-90
2022/07/05 00:20:46;;;;;;;1.87;1.40;;;24.20;40.70;;;;;;5015723;28;20972;-91
2022/07/05 00:23:13;;;;;;;1.50;1.30;;;24.10;40.30;;;;;;5022048;28;20453;-90
2022/07/05 00:25:40;;;;;;;1.40;1.30;;;24.10;40.80;;;;;;5021913;28;20473;-92
2022/07/05 00:28:07;;;;;;;1.33;1.23;;;24.00;41.10;;;;;;5020529;28;20454;-90
2022/07/05 00:30:35;;;;;;;1.60;1.20;;;23.90;40.90;;;;;;5030323;28;20541;-91
2022/07/05 00:33:02;;;;;;;1.30;1.20;;;24.00;41.20;;;;;;5022074;28;20447;-91
2022/07/05 00:35:30;;;;;;;1.50;1.40;;;23.90;41.20;;;;;;5006157;28;20455;-90
2022/07/05 00:37:57;;;;;;;1.63;1.40;;;23.90;41.40;;;;;;5006659;28;20489;-90
2022/07/05 00:40:24;;;;;;;1.50;1.33;;;23.80;41.70;;;;;;4995478;28;20454;-90
2022/07/05 00:42:51;;;;;;;1.47;1.37;;;23.80;41.80;;;;;;5021597;28;20451;-90
2022/07/05 00:45:18;;;;;;;1.53;1.43;;;23.80;41.70;;;;;;5020151;28;20459;-90
2022/07/05 00:47:46;;;;;;;3.03;1.50;;;23.70;41.90;;;;;;5023887;28;20538;-90
2022/07/05 00:50:13;;;;;;;1.33;1.23;;;23.70;42.20;;;;;;5004321;28;20442;-91
2022/07/05 00:52:41;;;;;;;1.70;1.60;;;23.60;42.20;;;;;;5007576;28;20455;-93
2022/07/05 00:55:09;;;;;;;1.40;1.30;;;23.60;42.40;;;;;;5016123;28;21009;-91
2022/07/05 00:57:37;;;;;;;3.63;1.30;;;23.50;42.50;;;;;;5008631;28;20447;-90
2022/07/05 01:00:05;;;;;;;2.50;1.67;;;23.50;42.60;;;;;;5032782;27;20453;-91
2022/07/05 01:02:32;;;;;;;1.43;1.33;;;23.50;43.00;;;;;;5006362;28;20804;-91
2022/07/05 01:05:01;;;;;;;2.13;1.77;;;23.40;43.00;;;;;;5030312;27;20463;-91
2022/07/05 01:07:28;;;;;;;1.33;1.23;;;23.40;43.00;;;;;;5007283;28;20450;-90
2022/07/05 01:09:57;;;;;;;1.63;1.30;;;23.30;43.30;;;;;;5009215;28;20448;-93
2022/07/05 01:12:24;;;;;;;2.10;1.57;;;23.30;43.70;;;;;;5001606;28;20467;-90
2022/07/05 01:14:53;;;;;;;2.10;1.60;;;23.30;44.90;;;;;;5016214;27;20461;-91
2022/07/05 01:17:20;;;;;;;1.40;1.30;;;23.20;44.60;;;;;;5023675;28;20477;-91
2022/07/05 01:19:47;;;;;;;1.40;1.30;;;23.20;44.80;;;;;;5021768;27;20834;-91
2022/07/05 01:22:19;;;;;;;6.70;2.00;;;23.10;44.80;;;;;;5014581;28;20541;-91
2022/07/05 01:24:49;;;;;;;1.60;1.50;;;23.10;44.60;;;;;;5037698;27;20450;-91
2022/07/05 01:27:17;;;;;;;1.50;1.40;;;23.00;44.60;;;;;;5018043;28;20451;-90
2022/07/05 01:29:44;;;;;;;3.23;1.43;;;23.00;44.40;;;;;;4992109;28;20452;-91
2022/07/05 01:32:11;;;;;;;4.70;1.60;;;23.00;44.30;;;;;;5006725;28;20505;-91
2022/07/05 01:34:39;;;;;;;1.70;1.50;;;23.00;44.00;;;;;;5014319;28;20465;-91
2022/07/05 01:37:07;;;;;;;2.50;1.40;;;22.90;44.00;;;;;;5030258;27;20441;-90
2022/07/05 01:39:34;;;;;;;1.30;1.20;;;22.90;44.20;;;;;;5022521;28;20463;-91
2022/07/05 01:42:03;;;;;;;1.53;1.40;;;22.80;44.10;;;;;;5027408;27;20549;-91
2022/07/05 01:44:31;;;;;;;1.90;1.80;;;22.80;44.40;;;;;;5031335;27;20926;-91
2022/07/05 01:47:04;;;;;;;1.70;1.60;;;22.70;45.50;;;;;;5009483;28;20460;-92
2022/07/05 01:49:36;;;;;;;1.70;1.60;;;22.70;45.80;;;;;;5007316;27;20450;-91
2022/07/05 01:52:08;;;;;;;1.60;1.50;;;22.60;46.00;;;;;;5049932;27;20455;-90
2022/07/05 01:54:35;;;;;;;1.70;1.60;;;22.60;46.40;;;;;;5037959;27;20450;-91
2022/07/05 01:57:05;;;;;;;1.67;1.50;;;22.60;46.60;;;;;;5008410;28;20441;-89
2022/07/05 01:59:33;;;;;;;1.40;1.30;;;22.50;46.40;;;;;;5011651;28;20438;-91
2022/07/05 02:02:00;;;;;;;1.93;1.33;;;22.50;46.20;;;;;;4997549;28;20441;-91
2022/07/05 02:04:29;;;;;;;2.50;1.63;;;22.50;46.00;;;;;;4986944;28;20957;-89
2022/07/05 02:06:56;;;;;;;2.23;1.57;;;22.50;46.10;;;;;;5021568;27;20557;-91
2022/07/05 02:09:24;;;;;;;1.70;1.60;;;22.40;46.10;;;;;;5030302;27;20450;-93
2022/07/05 02:11:51;;;;;;;1.60;1.50;;;22.30;45.80;;;;;;5007345;28;20491;-91
2022/07/05 02:14:20;;;;;;;1.50;1.40;;;22.30;45.70;;;;;;5011115;27;20446;-91
2022/07/05 02:16:48;;;;;;;1.57;1.40;;;22.30;45.60;;;;;;5041062;27;20481;-91
2022/07/05 02:19:15;;;;;;;1.60;1.47;;;22.30;45.50;;;;;;5113160;27;20434;-90
2022/07/05 02:21:44;;;;;;;1.50;1.40;;;22.20;45.30;;;;;;5010511;28;20447;-91
2022/07/05 02:24:16;;;;;;;5.53;1.67;;;22.20;45.60;;;;;;4993285;28;21091;-92
2022/07/05 02:27:06;;;;;;;1.77;1.67;;;22.20;44.90;;;;;;5046540;27;20486;-92
2022/07/05 02:29:34;;;;;;;2.10;1.93;;;22.20;45.20;;;;;;4999614;28;20807;-91
2022/07/05 02:32:03;;;;;;;1.57;1.47;;;22.20;45.40;;;;;;5032240;28;20590;-90
2022/07/05 02:34:30;;;;;;;1.63;1.53;;;22.10;45.60;;;;;;5019419;28;20551;-90
2022/07/05 02:36:57;;;;;;;1.77;1.40;;;22.10;45.70;;;;;;5047644;27;21309;-91
2022/07/05 02:39:24;;;;;;;1.77;1.40;;;22.10;45.90;;;;;;5020401;28;20435;-91
2022/07/05 02:41:54;;;;;;;4.10;1.83;;;22.00;45.90;;;;;;5007817;28;20568;-91
2022/07/05 02:44:21;;;;;;;1.90;1.30;;;22.00;45.80;;;;;;5013732;27;20450;-91
2022/07/05 02:46:51;;;;;;;3.10;2.00;;;22.00;45.80;;;;;;5010600;28;20837;-91
2022/07/05 02:49:18;;;;;;;2.13;1.53;;;22.00;45.80;;;;;;4997536;28;20442;-91
2022/07/05 02:51:46;;;;;;;1.40;1.30;;;21.90;45.50;;;;;;5029071;27;20446;-90
2022/07/05 02:54:14;;;;;;;1.47;1.37;;;21.70;45.80;;;;;;5007553;28;20453;-91
2022/07/05 02:56:42;;;;;;;1.73;1.47;;;21.50;46.20;;;;;;5012800;28;20451;-91
2022/07/05 02:59:11;;;;;;;2.27;1.83;;;21.60;46.10;;;;;;5027372;27;20800;-91
2022/07/05 03:01:39;;;;;;;1.60;1.50;;;21.60;45.80;;;;;;5056930;27;20443;-91
2022/07/05 03:04:11;;;;;;;1.77;1.60;;;21.60;45.50;;;;;;5016693;28;20537;-91
2022/07/05 03:06:42;;;;;;;1.80;1.70;;;21.60;45.70;;;;;;5019434;27;20881;-91
2022/07/05 03:09:10;;;;;;;1.77;1.67;;;21.60;46.00;;;;;;5031382;28;20717;-91
2022/07/05 03:11:38;;;;;;;2.50;1.70;;;21.60;46.10;;;;;;5033268;27;20454;-91
2022/07/05 03:14:07;;;;;;;1.57;1.47;;;21.50;46.40;;;;;;4998811;28;20503;-90
2022/07/05 03:16:35;;;;;;;1.90;1.40;;;21.50;46.30;;;;;;5008389;28;20528;-91
2022/07/05 03:19:02;;;;;;;2.00;1.70;;;21.40;47.40;;;;;;5009458;28;20478;-89
2022/07/05 03:21:30;;;;;;;2.47;1.90;;;21.40;47.20;;;;;;5034863;27;20462;-91
2022/07/05 03:23:57;;;;;;;2.53;1.77;;;21.40;47.30;;;;;;4997544;28;20493;-91
2022/07/05 03:26:25;;;;;;;3.20;1.53;;;21.40;47.30;;;;;;5019867;27;20454;-91
2022/07/05 03:28:52;;;;;;;1.90;1.80;;;21.40;47.30;;;;;;5009760;28;20534;-91
2022/07/05 03:31:19;;;;;;;1.93;1.83;;;21.30;47.50;;;;;;5019861;28;21203;-92
2022/07/05 03:33:46;;;;;;;1.93;1.33;;;21.30;47.90;;;;;;5004469;28;21006;-91
2022/07/05 03:36:14;;;;;;;1.90;1.80;;;21.30;47.90;;;;;;4998163;28;20565;-91
2022/07/05 03:38:44;;;;;;;3.27;1.83;;;21.40;48.40;;;;;;5006393;28;20940;-91
2022/07/05 03:41:12;;;;;;;1.67;1.57;;;21.40;48.60;;;;;;5023667;28;20442;-91
2022/07/05 03:43:41;;;;;;;1.70;1.60;;;21.30;48.10;;;;;;5023040;28;20880;-91
2022/07/05 03:46:08;;;;;;;1.93;1.67;;;21.30;47.80;;;;;;5019795;28;20874;-90
2022/07/05 03:48:37;;;;;;;3.50;1.87;;;21.30;47.50;;;;;;5008230;28;20457;-90
2022/07/05 03:51:04;;;;;;;1.67;1.57;;;21.30;47.70;;;;;;5009185;28;20443;-90
2022/07/05 03:53:32;;;;;;;2.00;1.80;;;21.20;47.60;;;;;;5027206;27;21253;-91
2022/07/05 03:56:02;;;;;;;3.83;1.80;;;21.20;47.50;;;;;;5000858;28;20478;-87
2022/07/05 03:58:29;;;;;;;2.47;1.83;;;21.20;47.90;;;;;;4994435;28;20461;-88
2022/07/05 04:00:58;;;;;;;2.60;1.67;;;21.20;48.30;;;;;;5002857;28;20450;-88
2022/07/05 04:03:27;;;;;;;1.70;1.60;;;21.10;48.60;;;;;;4999375;28;20493;-86
2022/07/05 04:05:54;;;;;;;2.80;1.90;;;21.10;49.60;;;;;;5000735;28;20466;-88
2022/07/05 04:08:22;;;;;;;2.20;1.50;;;21.10;48.70;;;;;;5017596;28;20451;-89
2022/07/05 04:10:49;;;;;;;1.60;1.50;;;21.20;48.60;;;;;;5085769;28;21036;-89
2022/07/05 04:13:20;;;;;;;2.00;1.80;;;21.20;49.00;;;;;;5017772;28;20454;-88
2022/07/05 04:15:49;;;;;;;1.87;1.70;;;21.20;49.10;;;;;;4981952;28;20467;-90
2022/07/05 04:18:16;;;;;;;2.00;1.90;;;21.20;48.90;;;;;;5018802;28;21065;-89
2022/07/05 04:20:44;;;;;;;1.97;1.87;;;21.20;48.50;;;;;;4986110;28;20442;-89
2022/07/05 04:23:13;;;;;;;2.43;2.00;;;21.20;48.60;;;;;;5023454;28;20479;-89
2022/07/05 04:25:40;;;;;;;3.27;1.93;;;21.10;48.90;;;;;;4986481;28;20496;-89
2022/07/05 04:28:17;;;;;;;2.40;1.87;;;21.10;49.70;;;;;;5002913;28;20497;-89
2022/07/05 04:30:47;;;;;;;1.80;1.70;;;21.10;49.60;;;;;;5002848;28;20464;-89
2022/07/05 04:33:15;;;;;;;2.27;2.10;;;21.10;49.30;;;;;;5004205;28;21000;-90
2022/07/05 04:35:45;;;;;;;2.10;2.00;;;21.10;50.00;;;;;;5018245;28;20475;-90
2022/07/05 04:38:12;;;;;;;2.00;1.90;;;21.10;49.90;;;;;;5077992;28;20458;-89
2022/07/05 04:40:42;;;;;;;2.63;2.13;;;21.10;49.40;;;;;;4983896;28;20858;-89
2022/07/05 04:43:09;;;;;;;3.70;1.97;;;21.10;49.50;;;;;;5005735;28;20454;-89
2022/07/05 04:45:36;;;;;;;3.73;2.87;;;21.10;49.50;;;;;;5006183;28;20939;-88
2022/07/05 04:48:06;;;;;;;1.90;1.70;;;21.10;50.40;;;;;;5018773;28;20994;-88
2022/07/05 04:50:35;;;;;;;2.33;2.13;;;21.10;50.20;;;;;;4995156;28;20454;-90
2022/07/05 04:53:03;;;;;;;2.13;1.93;;;21.10;49.80;;;;;;4995521;27;20461;-91
2022/07/05 04:55:30;;;;;;;2.67;2.30;;;21.20;49.70;;;;;;5020927;27;20466;-89
2022/07/05 04:57:57;;;;;;;1.70;1.60;;;21.20;49.10;;;;;;5020530;27;21181;-89
2022/07/05 05:00:24;;;;;;;1.87;1.77;;;21.20;49.00;;;;;;5005265;28;21410;-89
2022/07/05 05:02:51;;;;;;;2.10;1.90;;;21.20;48.90;;;;;;5019321;27;20450;-90
2022/07/05 05:05:20;;;;;;;2.60;2.10;;;21.20;49.00;;;;;;5006108;28;20489;-90
2022/07/05 05:07:47;;;;;;;2.23;2.03;;;21.30;49.00;;;;;;5020417;27;22529;-90
2022/07/05 05:10:14;;;;;;;2.83;2.10;;;21.20;49.10;;;;;;5001829;28;20446;-90
2022/07/05 05:12:41;;;;;;;2.47;2.20;;;21.20;50.10;;;;;;5020439;28;20458;-89
2022/07/05 05:15:09;;;;;;;4.70;2.17;;;21.20;50.30;;;;;;5001468;28;20981;-89
2022/07/05 05:17:38;;;;;;;2.00;1.80;;;21.40;50.00;;;;;;4991637;28;20443;-89
2022/07/05 05:20:07;;;;;;;2.57;2.30;;;21.50;50.00;;;;;;5017625;28;20464;-89
2022/07/05 05:22:35;;;;;;;2.03;1.93;;;21.40;49.70;;;;;;5009472;28;20597;-89
2022/07/05 05:25:02;;;;;;;1.73;1.63;;;21.60;49.30;;;;;;5016908;27;20471;-88
2022/07/05 05:27:29;;;;;;;2.60;1.67;;;21.60;49.60;;;;;;5018162;27;20445;-90
2022/07/05 05:29:56;;;;;;;2.00;1.90;;;21.70;49.90;;;;;;5019475;27;20450;-90
2022/07/05 05:32:23;;;;;;;2.03;1.93;;;21.80;49.30;;;;;;5019609;28;20457;-89
2022/07/05 05:34:50;;;;;;;2.43;1.90;;;22.00;48.90;;;;;;5021294;27;20976;-90
2022/07/05 05:37:17;;;;;;;3.73;2.13;;;22.10;48.40;;;;;;4989581;28;20493;-89
2022/07/05 05:39:45;;;;;;;3.30;2.17;;;22.10;48.70;;;;;;5001160;28;20450;-89
2022/07/05 05:42:12;;;;;;;8.60;1.90;;;22.00;49.30;;;;;;5005059;27;21051;-91
2022/07/05 05:44:39;;;;;;;2.93;1.90;;;22.10;49.10;;;;;;5008110;27;20459;-88
2022/07/05 05:47:06;;;;;;;2.00;1.87;;;22.30;48.60;;;;;;5019689;28;20451;-90
2022/07/05 05:49:33;;;;;;;2.07;1.87;;;22.50;48.40;;;;;;4987959;28;20443;-90
2022/07/05 05:51:59;;;;;;;3.67;2.37;;;22.50;48.40;;;;;;5008223;28;20534;-90
2022/07/05 05:54:27;;;;;;;3.70;2.10;;;22.40;48.50;;;;;;5001218;28;20478;-90
2022/07/05 05:56:55;;;;;;;2.10;2.00;;;22.20;49.00;;;;;;4999385;28;20485;-90
2022/07/05 05:59:22;;;;;;;2.33;1.97;;;22.00;49.60;;;;;;5024971;27;20486;-91
2022/07/05 06:01:49;;;;;;;2.20;1.90;;;22.10;49.50;;;;;;5020550;28;20684;-90
2022/07/05 06:04:16;;;;;;;2.00;1.90;;;22.20;49.40;;;;;;5003366;28;20450;-90
2022/07/05 06:06:43;;;;;;;1.80;1.70;;;22.20;49.20;;;;;;5008016;27;20934;-91
2022/07/05 06:09:10;;;;;;;3.37;2.50;;;22.20;48.80;;;;;;5018847;27;20450;-90
2022/07/05 06:11:37;;;;;;;2.10;2.00;;;22.00;49.30;;;;;;5019356;28;20454;-90
2022/07/05 06:14:05;;;;;;;2.27;2.07;;;22.30;49.50;;;;;;5003815;28;20822;-90
2022/07/05 06:16:32;;;;;;;3.60;2.10;;;22.50;48.30;;;;;;5025555;27;20477;-90
2022/07/05 06:18:59;;;;;;;2.27;2.07;;;22.60;48.60;;;;;;5020301;27;21133;-91
2022/07/05 06:21:26;;;;;;;2.10;1.90;;;22.60;48.30;;;;;;5005307;28;20502;-91
2022/07/05 06:23:53;;;;;;;1.80;1.70;;;22.60;48.20;;;;;;4995495;28;20486;-91
2022/07/05 06:26:20;;;;;;;2.33;1.90;;;22.60;48.30;;;;;;5002484;28;20470;-90
2022/07/05 06:28:47;;;;;;;3.13;1.80;;;22.70;47.60;;;;;;5005728;28;20457;-90
2022/07/05 06:31:15;;;;;;;2.20;1.87;;;22.80;47.80;;;;;;5024380;27;21059;-91
2022/07/05 06:33:42;;;;;;;2.50;1.97;;;22.90;47.80;;;;;;5019583;27;20455;-90
2022/07/05 06:36:09;;;;;;;2.20;1.80;;;23.20;47.50;;;;;;5020525;28;20497;-91
2022/07/05 06:38:36;;;;;;;5.53;2.00;;;23.50;46.30;;;;;;5026584;27;20455;-90
2022/07/05 06:41:03;;;;;;;1.97;1.87;;;23.80;46.00;;;;;;5033032;27;20438;-90
2022/07/05 06:43:30;;;;;;;2.40;2.20;;;23.70;45.00;;;;;;5005493;28;20461;-89
2022/07/05 06:46:02;;;;;;;6.33;1.83;;;23.60;43.00;;;;;;4993386;28;20459;-87
2022/07/05 06:48:30;;;;;;;4.10;2.73;;;23.50;42.90;;;;;;5023305;27;20478;-91
2022/07/05 06:50:57;;;;;;;3.10;1.70;;;23.60;43.30;;;;;;5000816;28;20458;-89
2022/07/05 06:53:24;;;;;;;5.73;1.80;;;23.70;43.60;;;;;;5004267;28;20511;-90
2022/07/05 06:55:51;;;;;;;5.93;2.00;;;24.00;44.10;;;;;;5024742;27;20481;-90
2022/07/05 06:58:18;;;;;;;1.90;1.80;;;24.20;42.90;;;;;;5018839;28;20468;-90
2022/07/05 07:00:45;;;;;;;6.50;2.13;;;24.10;42.80;;;;;;5007120;28;20447;-90
2022/07/05 07:03:12;;;;;;;7.80;2.47;;;24.10;42.20;;;;;;4996777;28;20455;-89
2022/07/05 07:05:41;;;;;;;9.30;2.40;;;24.20;42.40;;;;;;5026135;27;20485;-89
2022/07/05 07:10:52;;;;;;;21.50;4.07;;;24.40;41.60;;;;;;5014019;27;20874;-90
2022/07/05 07:13:20;;;;;;;17.97;2.97;;;24.60;41.50;;;;;;5002622;28;20467;-90
2022/07/05 07:15:47;;;;;;;9.63;2.07;;;24.70;42.10;;;;;;4998940;28;20477;-89
2022/07/05 07:18:15;;;;;;;12.57;2.50;;;24.80;41.80;;;;;;5008603;28;20929;-90
2022/07/05 07:20:45;;;;;;;13.90;2.40;;;25.20;41.20;;;;;;5018440;28;20562;-90
2022/07/05 07:23:16;;;;;;;16.03;2.53;;;25.40;39.90;;;;;;4985594;28;20617;-90
2022/07/05 07:25:48;;;;;;;4.53;1.80;;;25.70;39.30;;;;;;5001947;27;20466;-92
2022/07/05 07:28:15;;;;;;;9.70;2.33;;;25.80;39.60;;;;;;4995162;28;20442;-90
2022/07/05 07:30:42;;;;;;;5.80;1.90;;;25.80;38.70;;;;;;5003892;28;20439;-90
2022/07/05 07:33:09;;;;;;;3.70;2.10;;;25.90;38.90;;;;;;5022980;28;20461;-90
2022/07/05 07:35:36;;;;;;;3.80;1.50;;;26.10;39.20;;;;;;5021211;28;20486;-90
2022/07/05 07:38:04;;;;;;;12.27;2.00;;;26.30;37.40;;;;;;5017866;28;20458;-88
2022/07/05 07:40:31;;;;;;;6.13;2.17;;;26.50;37.90;;;;;;5020185;28;20446;-90
2022/07/05 07:42:58;;;;;;;11.80;2.10;;;26.40;37.30;;;;;;5005816;28;20446;-90
2022/07/05 07:45:26;;;;;;;11.60;2.00;;;26.70;38.40;;;;;;5009182;28;20469;-90
2022/07/05 07:47:53;;;;;;;7.10;2.47;;;27.00;38.70;;;;;;5020841;28;20454;-91
2022/07/05 07:50:20;;;;;;;3.40;2.23;;;27.20;36.30;;;;;;5018227;28;21086;-90
2022/07/05 07:52:47;;;;;;;10.43;2.40;;;27.30;35.90;;;;;;5010558;28;21111;-90
2022/07/05 07:55:16;;;;;;;6.03;1.80;;;27.30;34.80;;;;;;5022587;28;20965;-90
2022/07/05 07:57:43;;;;;;;3.63;1.60;;;27.30;35.00;;;;;;4987128;28;20473;-92
2022/07/05 08:00:10;;;;;;;4.57;2.00;;;27.50;35.20;;;;;;5019013;28;20458;-90
2022/07/05 08:02:40;;;;;;;1.60;1.50;;;27.50;34.10;;;;;;5027901;27;20446;-91
2022/07/05 08:05:09;;;;;;;6.53;1.67;;;27.50;34.30;;;;;;5024109;28;20478;-90
2022/07/05 08:07:36;;;;;;;4.20;1.60;;;27.50;34.00;;;;;;4992230;28;21292;-90
2022/07/05 08:10:03;;;;;;;2.60;1.37;;;27.80;34.60;;;;;;5029789;27;20481;-90
2022/07/05 08:12:32;;;;;;;2.83;1.40;;;28.00;32.90;;;;;;5027120;27;20523;-90
2022/07/05 08:14:59;;;;;;;2.23;1.60;;;28.20;31.40;;;;;;5026511;27;20450;-89
2022/07/05 08:17:25;;;;;;;3.10;1.53;;;28.10;30.90;;;;;;5023215;27;20470;-90
2022/07/05 08:22:36;;;;;;;3.10;1.30;;;28.30;32.70;;;;;;5010330;28;20431;-90
2022/07/05 08:25:04;;;;;;;5.63;2.20;;;28.60;31.50;;;;;;5017332;27;20466;-90
2022/07/05 08:27:32;;;;;;;1.57;1.47;;;28.70;31.30;;;;;;5024144;27;20693;-91
2022/07/05 08:29:59;;;;;;;2.80;1.70;;;28.90;32.30;;;;;;5027091;27;20805;-90
2022/07/05 08:32:26;;;;;;;2.83;1.90;;;29.00;31.40;;;;;;5022449;27;20465;-89
2022/07/05 08:34:53;;;;;;;1.30;1.20;;;29.00;31.10;;;;;;5026527;27;20457;-90
2022/07/05 08:37:20;;;;;;;2.17;1.93;;;28.90;30.20;;;;;;5005815;28;21280;-91
2022/07/05 08:39:47;;;;;;;4.17;1.87;;;29.00;30.90;;;;;;5023146;28;21128;-90
2022/07/05 08:42:14;;;;;;;2.93;1.70;;;29.20;31.20;;;;;;5026752;27;20454;-90
2022/07/05 08:44:44;;;;;;;1.77;1.37;;;29.50;31.00;;;;;;4994001;27;20457;-89
2022/07/05 08:47:13;;;;;;;3.17;1.70;;;29.60;31.20;;;;;;4997740;27;20554;-92
2022/07/05 08:49:41;;;;;;;2.17;1.93;;;29.70;29.30;;;;;;5002276;28;20540;-90
2022/07/05 08:52:11;;;;;;;2.00;1.77;;;29.70;29.00;;;;;;5019912;28;20457;-89
2022/07/05 08:54:38;;;;;;;1.60;1.50;;;29.80;28.70;;;;;;5001330;28;20437;-91
2022/07/05 08:57:05;;;;;;;1.80;1.67;;;29.80;27.40;;;;;;5004524;28;20562;-90
2022/07/05 08:59:32;;;;;;;4.27;2.03;;;29.50;27.90;;;;;;5002823;28;20443;-89
2022/07/05 09:02:01;;;;;;;1.73;1.57;;;29.80;28.00;;;;;;4988642;28;20806;-90
2022/07/05 09:04:32;;;;;;;1.60;1.50;;;30.20;28.10;;;;;;5011076;27;20446;-91
2022/07/05 09:07:07;;;;;;;1.73;1.63;;;30.50;27.50;;;;;;5004287;28;20481;-89
2022/07/05 09:09:35;;;;;;;1.80;1.60;;;30.60;27.60;;;;;;5003297;28;20430;-89
2022/07/05 09:12:02;;;;;;;1.70;1.40;;;30.60;27.40;;;;;;5008180;28;20458;-89
2022/07/05 09:14:29;;;;;;;2.90;1.47;;;30.70;27.00;;;;;;5022090;27;20470;-90
2022/07/05 09:16:58;;;;;;;1.63;1.53;;;30.90;27.50;;;;;;5007570;28;20481;-91
2022/07/05 09:19:28;;;;;;;1.73;1.33;;;30.60;27.30;;;;;;5019860;27;20449;-90
2022/07/05 09:22:03;;;;;;;2.73;1.80;;;30.60;27.20;;;;;;5010150;28;20453;-93
2022/07/05 09:24:31;;;;;;;2.20;2.00;;;30.50;27.50;;;;;;5013489;28;20449;-90
2022/07/05 09:27:04;;;;;;;1.70;1.60;;;30.60;27.90;;;;;;5090377;27;20527;-90
2022/07/05 09:29:31;;;;;;;1.60;1.50;;;31.10;28.50;;;;;;5016806;28;20791;-91
2022/07/05 09:31:58;;;;;;;3.30;1.60;;;31.60;27.10;;;;;;5073956;28;20992;-90
2022/07/05 09:34:29;;;;;;;2.00;1.67;;;30.90;25.90;;;;;;5013941;27;20460;-90
2022/07/05 09:36:58;;;;;;;2.00;1.43;;;30.80;26.80;;;;;;5028177;27;21296;-92
2022/07/05 09:39:41;;;;;;;6.20;1.97;;;30.70;27.80;;;;;;4988937;28;20451;-90
2022/07/05 09:42:25;;;;;;;1.60;1.50;;;30.60;27.50;;;;;;5024994;27;20511;-90
2022/07/05 09:44:54;;;;;;;1.80;1.70;;;30.30;27.60;;;;;;5019630;27;21008;-90
2022/07/05 09:47:22;;;;;;;2.03;1.73;;;30.10;27.40;;;;;;5028656;27;21012;-91
2022/07/05 09:49:52;;;;;;;2.40;1.60;;;30.00;27.90;;;;;;5005414;28;20455;-91
2022/07/05 09:52:28;;;;;;;2.33;1.77;;;30.20;28.50;;;;;;4996296;28;21103;-90
2022/07/05 09:55:06;;;;;;;2.30;1.40;;;30.60;27.60;;;;;;5022177;27;20462;-90
2022/07/05 09:57:34;;;;;;;2.90;1.60;;;30.90;27.20;;;;;;5039201;27;20508;-89
2022/07/05 10:00:03;;;;;;;3.53;1.87;;;31.10;26.90;;;;;;5019591;28;20543;-90
2022/07/05 10:02:38;;;;;;;1.57;1.47;;;31.00;27.90;;;;;;5023075;27;20450;-90
2022/07/05 10:05:14;;;;;;;2.60;1.40;;;31.30;28.00;;;;;;4982212;28;20506;-90
2022/07/05 10:07:44;;;;;;;1.80;1.70;;;31.50;28.00;;;;;;5023993;27;20454;-91
2022/07/05 10:10:13;;;;;;;1.60;1.50;;;31.60;26.80;;;;;;4986249;28;20536;-90
2022/07/05 10:12:42;;;;;;;1.70;1.50;;;31.60;26.30;;;;;;5010113;28;20454;-90
2022/07/05 10:15:10;;;;;;;2.23;1.70;;;31.20;26.30;;;;;;5007577;27;20482;-90
2022/07/05 10:17:40;;;;;;;2.70;1.17;;;31.00;27.10;;;;;;5001720;28;20989;-93
2022/07/05 10:20:15;;;;;;;2.40;1.40;;;30.80;27.00;;;;;;5020682;27;20454;-92
2022/07/05 10:22:43;;;;;;;1.70;1.60;;;30.70;27.60;;;;;;5006757;28;20876;-91
2022/07/05 10:25:10;;;;;;;1.87;1.70;;;30.30;26.50;;;;;;4989798;28;20474;-91
2022/07/05 10:27:39;;;;;;;2.60;1.60;;;30.00;27.00;;;;;;5024240;27;20451;-92
2022/07/05 10:30:08;;;;;;;1.57;1.47;;;29.90;27.20;;;;;;5025251;28;20445;-91
2022/07/05 10:32:36;;;;;;;1.50;1.40;;;30.00;27.80;;;;;;5012577;27;20452;-89
2022/07/05 10:35:04;;;;;;;2.53;1.43;;;30.40;27.20;;;;;;5019953;28;20478;-90
2022/07/05 10:37:33;;;;;;;1.50;1.40;;;30.20;28.20;;;;;;5019254;28;20502;-91
2022/07/05 10:40:02;;;;;;;1.73;1.30;;;30.60;27.60;;;;;;5020804;27;20450;-89
2022/07/05 10:42:35;;;;;;;1.60;1.43;;;30.70;27.80;;;;;;5015025;28;20438;-90
2022/07/05 10:45:03;;;;;;;1.63;1.53;;;31.10;27.10;;;;;;4998755;28;20480;-90
2022/07/05 10:47:32;;;;;;;1.57;1.47;;;31.30;26.90;;;;;;5012500;27;20462;-89
2022/07/05 10:50:05;;;;;;;1.63;1.53;;;31.20;26.20;;;;;;5015404;28;20541;-88
2022/07/05 10:52:34;;;;;;;1.50;1.40;;;31.10;26.50;;;;;;4998325;27;21388;-87
2022/07/05 10:55:23;;;;;;;5.07;1.50;;;31.00;26.70;;;;;;5001182;28;20956;-89
2022/07/05 10:58:19;;;;;;;2.90;2.03;;;31.20;26.40;;;;;;5015490;27;20474;-88
2022/07/05 11:00:48;;;;;;;1.30;1.20;;;31.40;25.70;;;;;;4989720;28;20948;-90
2022/07/05 11:03:33;;;;;;;3.00;1.40;;;31.50;26.30;;;;;;5017749;28;20442;-89
2022/07/05 11:06:01;;;;;;;1.50;1.40;;;31.90;25.40;;;;;;5000133;28;20581;-91
2022/07/05 11:08:30;;;;;;;1.40;1.30;;;32.00;25.50;;;;;;4990414;27;20431;-90
2022/07/05 11:11:11;;;;;;;1.70;1.60;;;31.90;25.60;;;;;;5001422;28;20538;-89
2022/07/05 11:13:40;;;;;;;3.30;1.30;;;32.00;25.60;;;;;;5003245;28;20558;-90
2022/07/05 11:16:23;;;;;;;1.60;1.27;;;32.10;23.60;;;;;;5000285;28;20489;-90
2022/07/05 11:18:51;;;;;;;2.60;1.40;;;32.00;24.90;;;;;;5016822;27;21113;-92
2022/07/05 11:21:19;;;;;;;3.93;1.70;;;32.20;24.70;;;;;;5000441;28;20457;-89
2022/07/05 11:23:48;;;;;;;2.27;1.40;;;32.10;24.90;;;;;;5019830;28;20522;-90
2022/07/05 11:26:19;;;;;;;1.20;1.10;;;32.10;24.90;;;;;;4998794;28;21120;-90
2022/07/05 11:28:47;;;;;;;1.70;1.60;;;32.10;24.30;;;;;;4984283;28;20453;-90
2022/07/05 11:31:40;;;;;;;1.50;1.40;;;32.30;24.40;;;;;;5016922;28;21044;-90
2022/07/05 11:34:14;;;;;;;1.23;1.13;;;32.40;24.50;;;;;;5016498;28;20980;-89
2022/07/05 11:36:41;;;;;;;1.80;1.70;;;32.70;24.40;;;;;;5017617;28;21000;-89
2022/07/05 11:39:15;;;;;;;3.20;1.50;;;32.80;23.60;;;;;;5023949;28;21140;-90
2022/07/05 11:41:47;;;;;;;1.87;1.60;;;32.80;24.30;;;;;;5019413;28;20573;-88
2022/07/05 11:44:14;;;;;;;3.73;1.40;;;32.80;24.20;;;;;;5017501;28;20458;-88
2022/07/05 11:46:43;;;;;;;1.90;1.60;;;33.00;24.10;;;;;;5017648;28;20474;-87
2022/07/05 11:49:10;;;;;;;1.63;1.53;;;32.70;23.80;;;;;;5019481;28;20548;-88
2022/07/05 11:51:36;;;;;;;2.23;1.60;;;32.60;24.80;;;;;;5018270;28;20499;-89
2022/07/05 11:54:05;;;;;;;3.23;1.60;;;32.20;23.80;;;;;;5017369;28;20854;-88
2022/07/05 11:56:33;;;;;;;2.70;1.60;;;32.30;23.70;;;;;;5018097;28;20466;-86
2022/07/05 11:59:16;;;;;;;1.67;1.57;;;32.50;23.70;;;;;;5018070;28;20470;-88
2022/07/05 12:01:44;;;;;;;1.67;1.57;;;32.30;24.00;;;;;;5001309;28;21004;-88
2022/07/05 12:04:11;;;;;;;1.70;1.60;;;32.20;24.00;;;;;;4986771;28;20431;-88
2022/07/05 12:06:42;;;;;;;2.50;1.47;;;32.10;25.00;;;;;;5013605;28;20490;-90
2022/07/05 12:09:09;;;;;;;1.83;1.50;;;32.40;24.20;;;;;;5018114;28;20446;-87
2022/07/05 12:14:22;;;;;;;2.70;1.63;;;32.90;23.10;;;;;;5018273;28;21891;-88
2022/07/05 12:16:50;;;;;;;2.03;1.60;;;33.10;23.70;;;;;;5017581;28;20501;-88
2022/07/05 12:19:27;;;;;;;1.73;1.57;;;33.40;23.30;;;;;;5016886;28;20478;-89
2022/07/05 12:21:55;;;;;;;2.33;1.60;;;33.50;23.10;;;;;;5017850;28;20547;-88
2022/07/05 12:24:23;;;;;;;3.03;1.80;;;33.60;23.20;;;;;;5022700;28;20545;-88
2022/07/05 12:26:52;;;;;;;3.47;1.73;;;33.50;22.80;;;;;;4993129;28;20469;-88
2022/07/05 12:29:21;;;;;;;1.70;1.60;;;33.30;22.80;;;;;;5021814;28;20457;-88
2022/07/05 12:32:01;;;;;;;1.97;1.40;;;33.20;23.30;;;;;;5021498;28;20461;-87
2022/07/05 12:34:29;;;;;;;3.10;1.60;;;33.50;22.90;;;;;;5004184;28;20446;-87
2022/07/05 12:36:57;;;;;;;4.00;1.73;;;33.80;22.90;;;;;;5022980;28;20482;-85
2022/07/05 12:39:24;;;;;;;1.60;1.50;;;34.00;22.80;;;;;;5015548;28;20997;-87
2022/07/05 12:41:53;;;;;;;1.73;1.63;;;34.20;21.30;;;;;;5018291;28;20458;-87
2022/07/05 12:44:21;;;;;;;3.27;1.90;;;34.30;22.10;;;;;;5012904;28;20442;-88
2022/07/05 12:46:50;;;;;;;1.67;1.53;;;34.10;21.30;;;;;;5001084;28;20831;-88
2022/07/05 12:49:17;;;;;;;1.50;1.40;;;33.90;21.90;;;;;;5006347;28;20950;-87
2022/07/05 12:51:45;;;;;;;1.87;1.57;;;33.90;21.40;;;;;;5023469;27;20544;-84
2022/07/05 13:00:03;;;;;;;1.70;1.60;;;33.30;22.00;;;;;;5002463;28;20562;-88
2022/07/05 13:02:38;;;;;;;2.10;1.90;;;33.50;21.20;;;;;;5021843;28;20580;-88
2022/07/05 13:05:07;;;;;;;3.70;1.90;;;33.50;21.90;;;;;;5016472;27;20473;-89
2022/07/05 13:07:41;;;;;;;4.07;1.60;;;33.40;22.00;;;;;;5023819;27;20446;-88